sensor_id;sensor_type;location;lat;lon;timestamp;pressure;altitude;pressure_sealevel;temperature;humidity
74798;BME280;63326;45.088;7.658;2024-01-06T00:01:04;97333.75;;;0.83;100.00
74798;BME280;63326;45.088;7.658;2024-01-06T00:03:31;97338.91;;;0.85;100.00
74798;BME280;63326;45.088;7.658;2024-01-06T00:05:58;97348.47;;;0.86;100.00
74798;BME280;63326;45.088;7.658;2024-01-06T00:08:26;97334.72;;;0.74;100.00
74798;BME280;63326;45.088;7.658;2024-01-06T00:10:53;97344.44;;;0.73;100.00
74798;BME280;63326;45.088;7.658;2024-01-06T00:13:20;97403.25;;;1.10;100.00
74798;BME280;63326;45.088;7.658;2024-01-06T00:15:47;97349.59;;;0.83;100.00
74798;BME280;63326;45.088;7.658;2024-01-06T00:18:14;97398.34;;;1.31;100.00
74798;BME280;63326;45.088;7.658;2024-01-06T00:20:40;97364.91;;;1.06;100.00
74798;BME280;63326;45.088;7.658;2024-01-06T00:23:07;97403.13;;;1.19;100.00
74798;BME280;63326;45.088;7.658;2024-01-06T00:25:34;97375.31;;;1.07;100.00
74798;BME280;63326;45.088;7.658;2024-01-06T00:28:01;97354.25;;;0.89;100.00
74798;BME280;63326;45.088;7.658;2024-01-06T00:30:28;97381.75;;;1.05;100.00
74798;BME280;63326;45.088;7.658;2024-01-06T00:32:55;97321.53;;;0.74;100.00
74798;BME280;63326;45.088;7.658;2024-01-06T00:35:22;97319.53;;;0.76;100.00
74798;BME280;63326;45.088;7.658;2024-01-06T00:37:49;97366.84;;;1.03;100.00
74798;BME280;63326;45.088;7.658;2024-01-06T00:40:16;97366.91;;;1.20;100.00
74798;BME280;63326;45.088;7.658;2024-01-06T00:42:42;97343.38;;;0.92;100.00
74798;BME280;63326;45.088;7.658;2024-01-06T00:45:09;97362.03;;;0.91;100.00
74798;BME280;63326;45.088;7.658;2024-01-06T00:47:36;97324.16;;;0.74;100.00
74798;BME280;63326;45.088;7.658;2024-01-06T00:50:04;97383.41;;;1.14;100.00
74798;BME280;63326;45.088;7.658;2024-01-06T00:52:31;97370.50;;;1.02;100.00
74798;BME280;63326;45.088;7.658;2024-01-06T00:54:58;97355.94;;;0.98;100.00
74798;BME280;63326;45.088;7.658;2024-01-06T00:57:25;97355.31;;;1.05;100.00
74798;BME280;63326;45.088;7.658;2024-01-06T00:59:52;97362.41;;;1.04;100.00
74798;BME280;63326;45.088;7.658;2024-01-06T01:02:18;97336.13;;;0.94;100.00
74798;BME280;63326;45.088;7.658;2024-01-06T01:04:45;97348.03;;;0.98;100.00
74798;BME280;63326;45.088;7.658;2024-01-06T01:07:12;97350.03;;;1.13;100.00
74798;BME280;63326;45.088;7.658;2024-01-06T01:09:39;97338.13;;;1.09;100.00
74798;BME280;63326;45.088;7.658;2024-01-06T01:12:06;97395.91;;;1.38;100.00
74798;BME280;63326;45.088;7.658;2024-01-06T01:14:33;97324.56;;;0.95;100.00
74798;BME280;63326;45.088;7.658;2024-01-06T01:16:59;97316.09;;;0.92;100.00
74798;BME280;63326;45.088;7.658;2024-01-06T01:19:26;97316.06;;;0.84;100.00
74798;BME280;63326;45.088;7.658;2024-01-06T01:21:53;97329.94;;;0.78;100.00
74798;BME280;63326;45.088;7.658;2024-01-06T01:24:22;97351.41;;;0.83;100.00
74798;BME280;63326;45.088;7.658;2024-01-06T01:26:49;97362.81;;;0.83;100.00
74798;BME280;63326;45.088;7.658;2024-01-06T01:29:16;97349.28;;;0.78;100.00
74798;BME280;63326;45.088;7.658;2024-01-06T01:31:43;97349.06;;;0.71;100.00
74798;BME280;63326;45.088;7.658;2024-01-06T01:34:10;97329.25;;;0.67;100.00
74798;BME280;63326;45.088;7.658;2024-01-06T01:36:37;97366.00;;;0.87;100.00
74798;BME280;63326;45.088;7.658;2024-01-06T01:39:04;97323.72;;;0.53;100.00
74798;BME280;63326;45.088;7.658;2024-01-06T01:41:31;97306.50;;;0.40;100.00
74798;BME280;63326;45.088;7.658;2024-01-06T01:43:57;97336.34;;;0.67;100.00
74798;BME280;63326;45.088;7.658;2024-01-06T01:46:29;97293.94;;;0.42;100.00
74798;BME280;63326;45.088;7.658;2024-01-06T01:48:57;97286.69;;;0.36;100.00
74798;BME280;63326;45.088;7.658;2024-01-06T01:51:27;97297.75;;;0.40;100.00
74798;BME280;63326;45.088;7.658;2024-01-06T01:53:56;97327.88;;;0.55;100.00
74798;BME280;63326;45.088;7.658;2024-01-06T01:56:24;97328.16;;;0.52;100.00
74798;BME280;63326;45.088;7.658;2024-01-06T01:58:53;97282.50;;;0.26;100.00
74798;BME280;63326;45.088;7.658;2024-01-06T02:01:19;97279.53;;;0.29;100.00
74798;BME280;63326;45.088;7.658;2024-01-06T02:03:46;97280.91;;;0.41;100.00
74798;BME280;63326;45.088;7.658;2024-01-06T02:06:13;97297.63;;;0.50;100.00
74798;BME280;63326;45.088;7.658;2024-01-06T02:08:40;97307.25;;;0.59;100.00
74798;BME280;63326;45.088;7.658;2024-01-06T02:11:07;97284.41;;;0.50;100.00
74798;BME280;63326;45.088;7.658;2024-01-06T02:13:37;97320.38;;;0.77;100.00
74798;BME280;63326;45.088;7.658;2024-01-06T02:16:04;97300.50;;;0.72;100.00
74798;BME280;63326;45.088;7.658;2024-01-06T02:18:33;97350.41;;;1.18;100.00
74798;BME280;63326;45.088;7.658;2024-01-06T02:21:01;97350.06;;;1.21;100.00
74798;BME280;63326;45.088;7.658;2024-01-06T02:23:28;97256.09;;;0.68;100.00
74798;BME280;63326;45.088;7.658;2024-01-06T02:25:56;97285.72;;;0.88;100.00
74798;BME280;63326;45.088;7.658;2024-01-06T02:28:23;97294.66;;;0.95;100.00
74798;BME280;63326;45.088;7.658;2024-01-06T02:30:50;97285.19;;;0.76;100.00
74798;BME280;63326;45.088;7.658;2024-01-06T02:33:17;97319.63;;;1.09;100.00
74798;BME280;63326;45.088;7.658;2024-01-06T02:35:46;97309.03;;;1.00;100.00
74798;BME280;63326;45.088;7.658;2024-01-06T02:38:13;97268.47;;;0.67;100.00
74798;BME280;63326;45.088;7.658;2024-01-06T02:40:39;97297.56;;;0.76;100.00
74798;BME280;63326;45.088;7.658;2024-01-06T02:43:06;97284.84;;;0.79;100.00
74798;BME280;63326;45.088;7.658;2024-01-06T02:45:33;97294.47;;;0.88;100.00
74798;BME280;63326;45.088;7.658;2024-01-06T02:48:00;97281.25;;;0.88;100.00
74798;BME280;63326;45.088;7.658;2024-01-06T02:50:27;97258.44;;;0.79;100.00
74798;BME280;63326;45.088;7.658;2024-01-06T02:52:53;97233.47;;;0.65;100.00
74798;BME280;63326;45.088;7.658;2024-01-06T02:55:21;97255.84;;;0.95;100.00
74798;BME280;63326;45.088;7.658;2024-01-06T02:57:47;97234.19;;;0.92;100.00
74798;BME280;63326;45.088;7.658;2024-01-06T03:00:15;97252.69;;;1.00;100.00
74798;BME280;63326;45.088;7.658;2024-01-06T03:02:41;97267.59;;;1.17;100.00
74798;BME280;63326;45.088;7.658;2024-01-06T03:05:09;97319.03;;;1.64;100.00
74798;BME280;63326;45.088;7.658;2024-01-06T03:07:36;97273.72;;;1.26;100.00
74798;BME280;63326;45.088;7.658;2024-01-06T03:10:03;97234.69;;;0.95;100.00
74798;BME280;63326;45.088;7.658;2024-01-06T03:12:30;97250.88;;;1.00;100.00
74798;BME280;63326;45.088;7.658;2024-01-06T03:14:58;97266.28;;;1.05;100.00
74798;BME280;63326;45.088;7.658;2024-01-06T03:17:24;97286.78;;;1.27;100.00
74798;BME280;63326;45.088;7.658;2024-01-06T03:19:51;97273.72;;;1.18;100.00
74798;BME280;63326;45.088;7.658;2024-01-06T03:22:18;97234.03;;;1.01;100.00
74798;BME280;63326;45.088;7.658;2024-01-06T03:24:45;97270.25;;;1.17;100.00
74798;BME280;63326;45.088;7.658;2024-01-06T03:27:12;97287.28;;;1.39;100.00
74798;BME280;63326;45.088;7.658;2024-01-06T03:29:39;97331.59;;;1.62;100.00
74798;BME280;63326;45.088;7.658;2024-01-06T03:32:06;97239.00;;;1.05;100.00
74798;BME280;63326;45.088;7.658;2024-01-06T03:34:33;97274.22;;;1.29;100.00
74798;BME280;63326;45.088;7.658;2024-01-06T03:37:00;97253.03;;;1.13;100.00
74798;BME280;63326;45.088;7.658;2024-01-06T03:39:26;97236.38;;;1.05;100.00
74798;BME280;63326;45.088;7.658;2024-01-06T03:41:53;97278.38;;;1.56;100.00
74798;BME280;63326;45.088;7.658;2024-01-06T03:44:20;97217.84;;;1.21;100.00
74798;BME280;63326;45.088;7.658;2024-01-06T03:46:47;97225.28;;;1.34;100.00
74798;BME280;63326;45.088;7.658;2024-01-06T03:49:13;97231.22;;;1.44;100.00
74798;BME280;63326;45.088;7.658;2024-01-06T03:51:40;97277.69;;;1.54;100.00
74798;BME280;63326;45.088;7.658;2024-01-06T03:54:07;97324.16;;;1.81;100.00
74798;BME280;63326;45.088;7.658;2024-01-06T03:56:34;97242.31;;;1.39;100.00
74798;BME280;63326;45.088;7.658;2024-01-06T03:59:00;97231.25;;;1.36;100.00
74798;BME280;63326;45.088;7.658;2024-01-06T04:01:27;97241.50;;;1.39;100.00
74798;BME280;63326;45.088;7.658;2024-01-06T04:03:55;97233.72;;;1.29;100.00
74798;BME280;63326;45.088;7.658;2024-01-06T04:06:22;97236.19;;;1.30;100.00
74798;BME280;63326;45.088;7.658;2024-01-06T04:08:48;97245.44;;;1.35;100.00
74798;BME280;63326;45.088;7.658;2024-01-06T04:11:16;97266.16;;;1.55;100.00
74798;BME280;63326;45.088;7.658;2024-01-06T04:13:43;97219.50;;;1.14;100.00
74798;BME280;63326;45.088;7.658;2024-01-06T04:16:10;97189.41;;;0.90;100.00
74798;BME280;63326;45.088;7.658;2024-01-06T04:18:36;97224.63;;;0.99;100.00
74798;BME280;63326;45.088;7.658;2024-01-06T04:21:04;97158.03;;;0.79;100.00
74798;BME280;63326;45.088;7.658;2024-01-06T04:23:31;97207.44;;;1.27;100.00
74798;BME280;63326;45.088;7.658;2024-01-06T04:25:58;97162.81;;;1.00;100.00
74798;BME280;63326;45.088;7.658;2024-01-06T04:28:25;97147.63;;;0.86;100.00
74798;BME280;63326;45.088;7.658;2024-01-06T04:30:51;97168.94;;;0.76;100.00
74798;BME280;63326;45.088;7.658;2024-01-06T04:33:18;97169.41;;;0.80;100.00
74798;BME280;63326;45.088;7.658;2024-01-06T04:35:45;97221.78;;;0.92;100.00
74798;BME280;63326;45.088;7.658;2024-01-06T04:38:12;97185.94;;;0.65;100.00
74798;BME280;63326;45.088;7.658;2024-01-06T04:40:38;97216.09;;;0.63;100.00
74798;BME280;63326;45.088;7.658;2024-01-06T04:43:05;97210.16;;;0.61;100.00
74798;BME280;63326;45.088;7.658;2024-01-06T04:45:32;97241.59;;;0.80;100.00
74798;BME280;63326;45.088;7.658;2024-01-06T04:47:58;97208.94;;;0.39;100.00
74798;BME280;63326;45.088;7.658;2024-01-06T04:50:25;97189.88;;;0.11;100.00
74798;BME280;63326;45.088;7.658;2024-01-06T04:52:52;97209.69;;;0.15;100.00
74798;BME280;63326;45.088;7.658;2024-01-06T04:55:19;97202.56;;;0.07;100.00
74798;BME280;63326;45.088;7.658;2024-01-06T04:57:45;97194.66;;;0.07;100.00
74798;BME280;63326;45.088;7.658;2024-01-06T05:00:12;97185.69;;;-0.08;100.00
74798;BME280;63326;45.088;7.658;2024-01-06T05:02:39;97217.41;;;0.08;100.00
74798;BME280;63326;45.088;7.658;2024-01-06T05:05:06;97155.13;;;-0.45;100.00
74798;BME280;63326;45.088;7.658;2024-01-06T05:07:33;97182.47;;;-0.20;100.00
74798;BME280;63326;45.088;7.658;2024-01-06T05:10:00;97178.13;;;-0.29;100.00
74798;BME280;63326;45.088;7.658;2024-01-06T05:12:26;97227.75;;;0.02;100.00
74798;BME280;63326;45.088;7.658;2024-01-06T05:14:53;97168.56;;;-0.30;100.00
74798;BME280;63326;45.088;7.658;2024-01-06T05:17:20;97165.97;;;-0.22;100.00
74798;BME280;63326;45.088;7.658;2024-01-06T05:19:47;97154.59;;;-0.22;100.00
74798;BME280;63326;45.088;7.658;2024-01-06T05:22:14;97204.38;;;0.07;100.00
74798;BME280;63326;45.088;7.658;2024-01-06T05:24:41;97201.56;;;0.08;100.00
74798;BME280;63326;45.088;7.658;2024-01-06T05:27:07;97170.63;;;-0.16;100.00
74798;BME280;63326;45.088;7.658;2024-01-06T05:29:38;97178.59;;;0.01;100.00
74798;BME280;63326;45.088;7.658;2024-01-06T05:32:05;97144.72;;;-0.20;100.00
74798;BME280;63326;45.088;7.658;2024-01-06T05:34:32;97185.53;;;-0.06;100.00
74798;BME280;63326;45.088;7.658;2024-01-06T05:36:59;97169.66;;;-0.15;100.00
74798;BME280;63326;45.088;7.658;2024-01-06T05:39:25;97169.97;;;-0.09;100.00
74798;BME280;63326;45.088;7.658;2024-01-06T05:41:52;97187.00;;;-0.04;100.00
74798;BME280;63326;45.088;7.658;2024-01-06T05:44:19;97191.28;;;-0.03;100.00
74798;BME280;63326;45.088;7.658;2024-01-06T05:46:45;97173.78;;;-0.12;100.00
74798;BME280;63326;45.088;7.658;2024-01-06T05:49:12;97154.91;;;-0.25;100.00
74798;BME280;63326;45.088;7.658;2024-01-06T05:51:44;97165.53;;;-0.09;100.00
74798;BME280;63326;45.088;7.658;2024-01-06T05:54:11;97146.63;;;-0.30;100.00
74798;BME280;63326;45.088;7.658;2024-01-06T05:56:38;97187.38;;;0.09;100.00
74798;BME280;63326;45.088;7.658;2024-01-06T05:59:05;97166.34;;;-0.17;100.00
74798;BME280;63326;45.088;7.658;2024-01-06T06:01:32;97182.19;;;-0.08;100.00
74798;BME280;63326;45.088;7.658;2024-01-06T06:03:58;97152.13;;;-0.24;100.00
74798;BME280;63326;45.088;7.658;2024-01-06T06:06:25;97184.41;;;0.04;100.00
74798;BME280;63326;45.088;7.658;2024-01-06T06:08:52;97151.78;;;-0.21;100.00
74798;BME280;63326;45.088;7.658;2024-01-06T06:11:19;97186.06;;;0.05;100.00
74798;BME280;63326;45.088;7.658;2024-01-06T06:13:45;97231.16;;;0.20;100.00
74798;BME280;63326;45.088;7.658;2024-01-06T06:16:12;97173.78;;;-0.12;100.00
74798;BME280;63326;45.088;7.658;2024-01-06T06:18:39;97158.59;;;-0.18;100.00
74798;BME280;63326;45.088;7.658;2024-01-06T06:21:07;97152.28;;;-0.25;100.00
74798;BME280;63326;45.088;7.658;2024-01-06T06:23:37;97181.19;;;-0.16;100.00
74798;BME280;63326;45.088;7.658;2024-01-06T06:26:07;97147.63;;;-0.31;100.00
74798;BME280;63326;45.088;7.658;2024-01-06T06:28:34;97137.66;;;-0.46;100.00
74798;BME280;63326;45.088;7.658;2024-01-06T06:31:01;97172.63;;;-0.09;100.00
74798;BME280;63326;45.088;7.658;2024-01-06T06:33:29;97172.63;;;-0.09;100.00
74798;BME280;63326;45.088;7.658;2024-01-06T06:35:56;97156.91;;;-0.27;100.00
74798;BME280;63326;45.088;7.658;2024-01-06T06:38:25;97206.34;;;0.05;100.00
74798;BME280;63326;45.088;7.658;2024-01-06T06:40:52;97207.63;;;-0.07;100.00
74798;BME280;63326;45.088;7.658;2024-01-06T06:43:18;97178.53;;;-0.16;100.00
74798;BME280;63326;45.088;7.658;2024-01-06T06:45:45;97179.16;;;-0.22;100.00
74798;BME280;63326;45.088;7.658;2024-01-06T06:48:12;97185.00;;;-0.10;100.00
74798;BME280;63326;45.088;7.658;2024-01-06T06:50:39;97164.94;;;-0.29;100.00
74798;BME280;63326;45.088;7.658;2024-01-06T06:53:08;97249.38;;;0.39;100.00
74798;BME280;63326;45.088;7.658;2024-01-06T06:55:35;97196.25;;;0.00;100.00
74798;BME280;63326;45.088;7.658;2024-01-06T06:58:04;97150.09;;;-0.38;100.00
74798;BME280;63326;45.088;7.658;2024-01-06T07:00:32;97157.66;;;-0.35;100.00
74798;BME280;63326;45.088;7.658;2024-01-06T07:02:59;97183.50;;;-0.13;100.00
74798;BME280;63326;45.088;7.658;2024-01-06T07:05:26;97192.66;;;0.09;100.00
74798;BME280;63326;45.088;7.658;2024-01-06T07:07:53;97193.50;;;0.10;100.00
74798;BME280;63326;45.088;7.658;2024-01-06T07:10:20;97166.94;;;0.03;100.00
74798;BME280;63326;45.088;7.658;2024-01-06T07:12:47;97140.25;;;-0.20;100.00
74798;BME280;63326;45.088;7.658;2024-01-06T07:15:14;97141.66;;;-0.07;100.00
74798;BME280;63326;45.088;7.658;2024-01-06T07:17:40;97156.28;;;0.29;100.00
74798;BME280;63326;45.088;7.658;2024-01-06T07:20:07;97179.44;;;0.43;100.00
74798;BME280;63326;45.088;7.658;2024-01-06T07:22:36;97231.34;;;0.77;100.00
74798;BME280;63326;45.088;7.658;2024-01-06T07:25:03;97194.00;;;0.56;100.00
74798;BME280;63326;45.088;7.658;2024-01-06T07:27:30;97146.69;;;0.20;100.00
74798;BME280;63326;45.088;7.658;2024-01-06T07:29:57;97218.28;;;0.67;100.00
74798;BME280;63326;45.088;7.658;2024-01-06T07:32:24;97210.34;;;0.59;100.00
74798;BME280;63326;45.088;7.658;2024-01-06T07:34:51;97225.41;;;0.75;100.00
74798;BME280;63326;45.088;7.658;2024-01-06T07:37:18;97185.38;;;0.46;100.00
74798;BME280;63326;45.088;7.658;2024-01-06T07:39:45;97195.34;;;0.68;100.00
74798;BME280;63326;45.088;7.658;2024-01-06T07:42:11;97175.34;;;0.57;100.00
74798;BME280;63326;45.088;7.658;2024-01-06T07:44:38;97253.53;;;1.09;100.00
74798;BME280;63326;45.088;7.658;2024-01-06T07:47:05;97206.41;;;0.80;100.00
74798;BME280;63326;45.088;7.658;2024-01-06T07:49:32;97201.63;;;0.91;100.00
74798;BME280;63326;45.088;7.658;2024-01-06T07:51:59;97144.94;;;0.61;100.00
74798;BME280;63326;45.088;7.658;2024-01-06T07:54:26;97183.94;;;0.84;100.00
74798;BME280;63326;45.088;7.658;2024-01-06T07:56:53;97202.16;;;0.95;100.00
74798;BME280;63326;45.088;7.658;2024-01-06T07:59:20;97146.63;;;0.70;100.00
74798;BME280;63326;45.088;7.658;2024-01-06T08:01:47;97189.59;;;1.13;100.00
74798;BME280;63326;45.088;7.658;2024-01-06T08:04:14;97162.84;;;1.08;100.00
74798;BME280;63326;45.088;7.658;2024-01-06T08:06:41;97165.13;;;1.19;100.00
74798;BME280;63326;45.088;7.658;2024-01-06T08:09:08;97217.84;;;1.62;100.00
74798;BME280;63326;45.088;7.658;2024-01-06T08:11:34;97147.94;;;1.31;100.00
74798;BME280;63326;45.088;7.658;2024-01-06T08:14:01;97184.75;;;1.66;100.00
74798;BME280;63326;45.088;7.658;2024-01-06T08:16:29;97161.63;;;1.59;100.00
74798;BME280;63326;45.088;7.658;2024-01-06T08:18:55;97224.69;;;2.11;100.00
74798;BME280;63326;45.088;7.658;2024-01-06T08:21:22;97171.97;;;1.85;100.00
74798;BME280;63326;45.088;7.658;2024-01-06T08:23:50;97179.84;;;2.02;100.00
74798;BME280;63326;45.088;7.658;2024-01-06T08:26:16;97168.09;;;2.04;100.00
74798;BME280;63326;45.088;7.658;2024-01-06T08:28:44;97169.75;;;2.67;100.00
74798;BME280;63326;45.088;7.658;2024-01-06T08:31:10;97144.06;;;2.99;100.00
74798;BME280;63326;45.088;7.658;2024-01-06T08:33:37;97183.59;;;3.46;100.00
74798;BME280;63326;45.088;7.658;2024-01-06T08:36:05;97185.44;;;3.46;100.00
74798;BME280;63326;45.088;7.658;2024-01-06T08:38:32;97244.31;;;4.16;100.00
74798;BME280;63326;45.088;7.658;2024-01-06T08:40:58;97170.31;;;4.13;100.00
74798;BME280;63326;45.088;7.658;2024-01-06T08:43:25;97190.47;;;4.59;100.00
74798;BME280;63326;45.088;7.658;2024-01-06T08:45:52;97193.53;;;4.56;100.00
74798;BME280;63326;45.088;7.658;2024-01-06T08:48:19;97222.00;;;4.76;100.00
74798;BME280;63326;45.088;7.658;2024-01-06T08:50:46;97181.38;;;4.68;100.00
74798;BME280;63326;45.088;7.658;2024-01-06T08:53:13;97147.91;;;4.73;100.00
74798;BME280;63326;45.088;7.658;2024-01-06T08:55:40;97170.69;;;5.19;100.00
74798;BME280;63326;45.088;7.658;2024-01-06T08:58:09;97181.19;;;5.48;100.00
74798;BME280;63326;45.088;7.658;2024-01-06T09:00:36;97173.50;;;5.88;97.80
74798;BME280;63326;45.088;7.658;2024-01-06T09:03:03;97208.28;;;6.14;94.80
74798;BME280;63326;45.088;7.658;2024-01-06T09:05:30;97178.28;;;5.99;94.57
74798;BME280;63326;45.088;7.658;2024-01-06T09:07:57;97160.75;;;5.83;93.73
74798;BME280;63326;45.088;7.658;2024-01-06T09:10:23;97203.69;;;5.95;95.12
74798;BME280;63326;45.088;7.658;2024-01-06T09:12:50;97154.56;;;5.48;94.76
74798;BME280;63326;45.088;7.658;2024-01-06T09:15:17;97163.09;;;5.37;95.98
74798;BME280;63326;45.088;7.658;2024-01-06T09:17:43;97170.31;;;5.22;97.84
74798;BME280;63326;45.088;7.658;2024-01-06T09:20:10;97201.59;;;5.41;98.64
74798;BME280;63326;45.088;7.658;2024-01-06T09:22:37;97229.22;;;5.61;97.64
74798;BME280;63326;45.088;7.658;2024-01-06T09:25:04;97189.41;;;5.75;96.64
74798;BME280;63326;45.088;7.658;2024-01-06T09:27:31;97180.59;;;6.09;91.99
74798;BME280;63326;45.088;7.658;2024-01-06T09:29:58;97194.66;;;6.31;91.64
74798;BME280;63326;45.088;7.658;2024-01-06T09:32:25;97208.28;;;6.08;92.83
74798;BME280;63326;45.088;7.658;2024-01-06T09:34:51;97167.06;;;5.76;93.07
74798;BME280;63326;45.088;7.658;2024-01-06T09:37:18;97161.09;;;5.46;94.73
74798;BME280;63326;45.088;7.658;2024-01-06T09:39:45;97188.19;;;5.77;94.47
74798;BME280;63326;45.088;7.658;2024-01-06T09:42:12;97189.53;;;5.67;94.40
74798;BME280;63326;45.088;7.658;2024-01-06T09:44:38;97155.16;;;5.44;94.81
74798;BME280;63326;45.088;7.658;2024-01-06T09:47:05;97126.22;;;5.13;95.77
74798;BME280;63326;45.088;7.658;2024-01-06T09:49:34;97180.09;;;5.43;96.61
74798;BME280;63326;45.088;7.658;2024-01-06T09:52:03;97190.13;;;5.41;98.30
74798;BME280;63326;45.088;7.658;2024-01-06T09:54:34;97138.66;;;5.05;97.88
74798;BME280;63326;45.088;7.658;2024-01-06T09:57:03;97135.78;;;5.07;98.90
74798;BME280;63326;45.088;7.658;2024-01-06T09:59:34;97128.31;;;4.96;98.92
74798;BME280;63326;45.088;7.658;2024-01-06T10:02:08;97154.16;;;5.23;98.76
74798;BME280;63326;45.088;7.658;2024-01-06T10:04:35;97163.19;;;5.50;97.27
74798;BME280;63326;45.088;7.658;2024-01-06T10:07:02;97118.22;;;5.13;97.74
74798;BME280;63326;45.088;7.658;2024-01-06T10:09:29;97133.44;;;5.19;97.47
74798;BME280;63326;45.088;7.658;2024-01-06T10:11:56;97202.66;;;5.68;98.49
74798;BME280;63326;45.088;7.658;2024-01-06T10:14:25;97125.81;;;5.37;97.79
74798;BME280;63326;45.088;7.658;2024-01-06T10:16:55;97143.88;;;5.70;95.18
74798;BME280;63326;45.088;7.658;2024-01-06T10:19:23;97182.66;;;6.13;94.39
74798;BME280;63326;45.088;7.658;2024-01-06T10:21:50;97112.19;;;5.81;93.88
74798;BME280;63326;45.088;7.658;2024-01-06T10:24:18;97130.00;;;6.22;91.39
74798;BME280;63326;45.088;7.658;2024-01-06T10:26:47;97094.72;;;6.13;89.82
74798;BME280;63326;45.088;7.658;2024-01-06T10:29:13;97098.75;;;6.03;88.79
74798;BME280;63326;45.088;7.658;2024-01-06T10:31:43;97101.69;;;6.14;88.66
74798;BME280;63326;45.088;7.658;2024-01-06T10:34:10;97063.75;;;6.06;88.55
74798;BME280;63326;45.088;7.658;2024-01-06T10:36:37;97174.31;;;6.71;89.26
74798;BME280;63326;45.088;7.658;2024-01-06T10:39:04;97107.53;;;6.38;89.35
74798;BME280;63326;45.088;7.658;2024-01-06T10:41:34;97181.19;;;7.00;86.83
74798;BME280;63326;45.088;7.658;2024-01-06T10:44:02;97132.81;;;6.48;88.31
74798;BME280;63326;45.088;7.658;2024-01-06T10:46:30;97149.06;;;6.67;90.22
74798;BME280;63326;45.088;7.658;2024-01-06T10:48:58;97124.19;;;6.46;90.83
74798;BME280;63326;45.088;7.658;2024-01-06T10:51:26;97109.84;;;6.54;90.51
74798;BME280;63326;45.088;7.658;2024-01-06T10:53:53;97131.25;;;6.80;88.18
74798;BME280;63326;45.088;7.658;2024-01-06T10:56:20;97123.25;;;6.94;85.79
74798;BME280;63326;45.088;7.658;2024-01-06T10:58:48;97138.69;;;6.98;86.14
74798;BME280;63326;45.088;7.658;2024-01-06T11:01:22;97155.94;;;7.09;85.26
74798;BME280;63326;45.088;7.658;2024-01-06T11:03:55;97164.81;;;7.29;85.63
74798;BME280;63326;45.088;7.658;2024-01-06T11:06:23;97101.72;;;7.15;82.85
74798;BME280;63326;45.088;7.658;2024-01-06T11:08:59;97109.78;;;7.35;83.06
74798;BME280;63326;45.088;7.658;2024-01-06T11:11:29;97071.56;;;7.21;83.22
74798;BME280;63326;45.088;7.658;2024-01-06T11:14:25;97160.50;;;7.75;82.11
74798;BME280;63326;45.088;7.658;2024-01-06T11:16:53;97083.66;;;7.24;81.81
74798;BME280;63326;45.088;7.658;2024-01-06T11:22:17;97141.19;;;7.73;81.03
74798;BME280;63326;45.088;7.658;2024-01-06T11:24:47;97099.25;;;7.27;82.03
74798;BME280;63326;45.088;7.658;2024-01-06T11:27:22;97066.63;;;7.18;81.36
74798;BME280;63326;45.088;7.658;2024-01-06T11:29:52;97086.72;;;7.27;81.58
74798;BME280;63326;45.088;7.658;2024-01-06T11:34:56;97105.66;;;7.59;81.21
74798;BME280;63326;45.088;7.658;2024-01-06T11:42:45;97052.47;;;7.11;84.30
74798;BME280;63326;45.088;7.658;2024-01-06T11:45:12;97128.47;;;7.55;82.43
74798;BME280;63326;45.088;7.658;2024-01-06T11:47:40;97060.47;;;7.44;81.91
74798;BME280;63326;45.088;7.658;2024-01-06T11:50:08;97085.91;;;7.80;80.02
74798;BME280;63326;45.088;7.658;2024-01-06T11:52:34;97082.97;;;7.88;81.30
74798;BME280;63326;45.088;7.658;2024-01-06T11:55:01;97083.94;;;8.13;78.17
74798;BME280;63326;45.088;7.658;2024-01-06T11:57:29;97021.94;;;7.85;78.01
74798;BME280;63326;45.088;7.658;2024-01-06T11:59:56;97061.53;;;8.14;78.08
74798;BME280;63326;45.088;7.658;2024-01-06T12:02:23;97079.94;;;8.36;76.80
74798;BME280;63326;45.088;7.658;2024-01-06T12:04:53;97052.28;;;8.10;76.61
74798;BME280;63326;45.088;7.658;2024-01-06T12:07:21;97076.06;;;8.25;77.79
74798;BME280;63326;45.088;7.658;2024-01-06T12:09:51;97045.91;;;8.11;77.35
74798;BME280;63326;45.088;7.658;2024-01-06T12:12:26;97020.28;;;7.90;77.92
74798;BME280;63326;45.088;7.658;2024-01-06T12:14:53;97022.53;;;7.93;78.25
74798;BME280;63326;45.088;7.658;2024-01-06T12:17:21;97044.06;;;8.12;78.10
74798;BME280;63326;45.088;7.658;2024-01-06T12:19:48;97013.31;;;7.89;78.40
74798;BME280;63326;45.088;7.658;2024-01-06T12:22:15;97054.97;;;8.10;77.70
74798;BME280;63326;45.088;7.658;2024-01-06T12:24:42;97023.78;;;7.91;79.23
74798;BME280;63326;45.088;7.658;2024-01-06T12:27:09;97072.50;;;8.44;77.64
74798;BME280;63326;45.088;7.658;2024-01-06T12:29:40;96992.91;;;7.95;77.65
74798;BME280;63326;45.088;7.658;2024-01-06T12:32:09;96979.19;;;7.78;77.06
74798;BME280;63326;45.088;7.658;2024-01-06T12:34:36;97058.91;;;8.46;76.49
74798;BME280;63326;45.088;7.658;2024-01-06T12:37:03;97002.09;;;8.12;75.86
74798;BME280;63326;45.088;7.658;2024-01-06T12:39:30;96961.53;;;7.77;76.90
74798;BME280;63326;45.088;7.658;2024-01-06T12:41:57;97045.91;;;8.49;77.11
74798;BME280;63326;45.088;7.658;2024-01-06T12:44:26;97017.78;;;8.40;75.73
74798;BME280;63326;45.088;7.658;2024-01-06T12:46:54;96988.56;;;8.39;75.17
74798;BME280;63326;45.088;7.658;2024-01-06T12:49:21;97042.50;;;8.67;76.22
74798;BME280;63326;45.088;7.658;2024-01-06T12:51:48;96988.31;;;8.47;74.61
74798;BME280;63326;45.088;7.658;2024-01-06T12:54:15;96961.44;;;8.35;75.44
74798;BME280;63326;45.088;7.658;2024-01-06T12:56:41;96984.34;;;8.56;73.99
74798;BME280;63326;45.088;7.658;2024-01-06T12:59:08;96993.91;;;8.70;73.50
74798;BME280;63326;45.088;7.658;2024-01-06T13:01:35;96944.53;;;8.41;73.21
74798;BME280;63326;45.088;7.658;2024-01-06T13:04:02;96980.75;;;8.69;73.48
74798;BME280;63326;45.088;7.658;2024-01-06T13:06:29;97006.66;;;8.75;75.29
74798;BME280;63326;45.088;7.658;2024-01-06T13:08:56;96970.09;;;8.62;73.88
74798;BME280;63326;45.088;7.658;2024-01-06T13:11:23;96987.81;;;8.88;73.30
74798;BME280;63326;45.088;7.658;2024-01-06T13:13:50;97008.00;;;9.09;73.60